Terminal Aerodrome Forecast
Issued by NWS

Home | Current Version | Previous Version | Text Only | Print | Product List | Glossary On
Versions: 1 2 3 4 5 6 7 8 9 10 11 12 13 14 15 16 17 18 19 20 21 22 23
000
FTUS41 KBOX 241732
TAFMHT
TAF
KMHT 241732Z 2418/2518 32009KT P6SM OVC020
     FM242000 32009KT P6SM OVC030
     FM250000 33005KT P6SM OVC040
     FM250600 VRB03KT P6SM SCT130=

USA.gov is the U.S. government's official web portal to all federal, state and local government web resources and services.